sensor_id;sensor_type;location;lat;lon;timestamp;pressure;altitude;pressure_sealevel;temperature;humidity
25232;BME280;13176;51.140;6.290;2022-11-20T00:01:28;100487.97;;;7.24;65.40
25232;BME280;13176;51.140;6.290;2022-11-20T00:03:56;100545.75;;;7.57;65.11
25232;BME280;13176;51.140;6.290;2022-11-20T00:06:24;100588.09;;;7.70;65.36
25232;BME280;13176;51.140;6.290;2022-11-20T00:08:51;100560.50;;;7.48;65.67
25232;BME280;13176;51.140;6.290;2022-11-20T00:11:21;100447.50;;;6.66;65.53
25232;BME280;13176;51.140;6.290;2022-11-20T00:13:51;100577.00;;;7.39;66.21
25232;BME280;13176;51.140;6.290;2022-11-20T00:16:20;100586.44;;;7.55;65.52
25232;BME280;13176;51.140;6.290;2022-11-20T00:18:51;100400.94;;;6.27;66.15
25232;BME280;13176;51.140;6.290;2022-11-20T00:21:20;100534.69;;;7.15;65.76
25232;BME280;13176;51.140;6.290;2022-11-20T00:23:49;100510.50;;;7.01;66.10
25232;BME280;13176;51.140;6.290;2022-11-20T00:26:18;100583.00;;;7.46;65.78
25232;BME280;13176;51.140;6.290;2022-11-20T00:28:57;100576.09;;;7.48;67.12
25232;BME280;13176;51.140;6.290;2022-11-20T00:31:24;100564.78;;;7.62;66.40
25232;BME280;13176;51.140;6.290;2022-11-20T00:33:51;100539.72;;;7.54;66.50
25232;BME280;13176;51.140;6.290;2022-11-20T00:36:20;100530.25;;;7.45;66.62
25232;BME280;13176;51.140;6.290;2022-11-20T00:38:50;100554.41;;;7.61;66.11
25232;BME280;13176;51.140;6.290;2022-11-20T00:41:17;100346.53;;;6.39;66.70
25232;BME280;13176;51.140;6.290;2022-11-20T00:43:43;100556.94;;;7.73;66.39
25232;BME280;13176;51.140;6.290;2022-11-20T00:46:14;100525.88;;;7.55;66.84
25232;BME280;13176;51.140;6.290;2022-11-20T00:48:41;100405.06;;;6.95;66.55
25232;BME280;13176;51.140;6.290;2022-11-20T00:51:07;100463.69;;;7.34;66.60
25232;BME280;13176;51.140;6.290;2022-11-20T00:53:34;100535.16;;;7.96;66.76
25232;BME280;13176;51.140;6.290;2022-11-20T00:56:05;100525.56;;;8.05;66.23
25232;BME280;13176;51.140;6.290;2022-11-20T00:58:37;100533.34;;;8.19;66.31
25232;BME280;13176;51.140;6.290;2022-11-20T01:01:21;100539.34;;;8.22;66.10
25232;BME280;13176;51.140;6.290;2022-11-20T01:03:51;100402.25;;;7.40;66.30
25232;BME280;13176;51.140;6.290;2022-11-20T01:06:20;100529.06;;;8.01;66.30
25232;BME280;13176;51.140;6.290;2022-11-20T01:08:50;100538.56;;;8.05;66.78
25232;BME280;13176;51.140;6.290;2022-11-20T01:11:22;100449.75;;;7.53;66.15
25232;BME280;13176;51.140;6.290;2022-11-20T01:13:51;100518.75;;;7.92;66.81
25232;BME280;13176;51.140;6.290;2022-11-20T01:16:21;100536.84;;;8.04;66.62
25232;BME280;13176;51.140;6.290;2022-11-20T01:18:50;100511.91;;;7.80;66.55
25232;BME280;13176;51.140;6.290;2022-11-20T01:21:23;100517.97;;;7.79;67.21
25232;BME280;13176;51.140;6.290;2022-11-20T01:23:51;100498.94;;;7.74;67.50
25232;BME280;13176;51.140;6.290;2022-11-20T01:26:20;100448.09;;;7.37;66.80
25232;BME280;13176;51.140;6.290;2022-11-20T01:28:47;100542.19;;;7.81;67.24
25232;BME280;13176;51.140;6.290;2022-11-20T01:31:19;100517.25;;;7.53;67.12
25232;BME280;13176;51.140;6.290;2022-11-20T01:33:48;100355.97;;;6.58;67.64
25232;BME280;13176;51.140;6.290;2022-11-20T01:36:15;100398.22;;;6.84;68.69
25232;BME280;13176;51.140;6.290;2022-11-20T01:38:42;100435.25;;;7.14;68.84
25232;BME280;13176;51.140;6.290;2022-11-20T01:41:10;100524.88;;;7.77;68.60
25232;BME280;13176;51.140;6.290;2022-11-20T01:43:58;100430.91;;;7.18;68.18
25232;BME280;13176;51.140;6.290;2022-11-20T01:46:25;100293.84;;;6.42;68.39
25232;BME280;13176;51.140;6.290;2022-11-20T01:48:58;100511.06;;;7.76;68.55
25232;BME280;13176;51.140;6.290;2022-11-20T01:54:14;100482.59;;;7.60;68.43
25232;BME280;13176;51.140;6.290;2022-11-20T01:56:45;100501.63;;;7.62;68.45
25232;BME280;13176;51.140;6.290;2022-11-20T01:59:15;100521.34;;;7.88;68.79
25232;BME280;13176;51.140;6.290;2022-11-20T02:01:44;100509.28;;;7.83;69.12
25232;BME280;13176;51.140;6.290;2022-11-20T02:04:13;100370.50;;;6.95;68.82
25232;BME280;13176;51.140;6.290;2022-11-20T02:06:55;100482.53;;;7.66;68.68
25232;BME280;13176;51.140;6.290;2022-11-20T02:09:23;100456.66;;;7.57;68.87
25232;BME280;13176;51.140;6.290;2022-11-20T02:11:49;100487.69;;;7.72;68.59
25232;BME280;13176;51.140;6.290;2022-11-20T02:14:16;100501.56;;;7.71;69.07
25232;BME280;13176;51.140;6.290;2022-11-20T02:16:45;100511.03;;;7.82;69.28
25232;BME280;13176;51.140;6.290;2022-11-20T02:19:20;100486.09;;;7.53;69.24
25232;BME280;13176;51.140;6.290;2022-11-20T02:24:27;100469.72;;;7.43;69.50
25232;BME280;13176;51.140;6.290;2022-11-20T02:26:57;100501.66;;;7.53;69.74
25232;BME280;13176;51.140;6.290;2022-11-20T02:29:46;100500.75;;;7.61;69.72
25232;BME280;13176;51.140;6.290;2022-11-20T02:32:21;100503.31;;;7.66;69.41
25232;BME280;13176;51.140;6.290;2022-11-20T02:34:48;100428.38;;;7.07;69.25
25232;BME280;13176;51.140;6.290;2022-11-20T02:37:16;100496.53;;;7.35;69.77
25232;BME280;13176;51.140;6.290;2022-11-20T02:39:44;100481.00;;;7.29;69.67
25232;BME280;13176;51.140;6.290;2022-11-20T02:42:12;100491.34;;;7.41;69.63
25232;BME280;13176;51.140;6.290;2022-11-20T02:44:38;100482.72;;;7.30;70.05
25232;BME280;13176;51.140;6.290;2022-11-20T02:47:05;100426.69;;;6.97;70.86
25232;BME280;13176;51.140;6.290;2022-11-20T02:49:31;100365.47;;;6.56;70.85
25232;BME280;13176;51.140;6.290;2022-11-20T02:51:58;100506.88;;;7.44;70.42
25232;BME280;13176;51.140;6.290;2022-11-20T02:54:24;100257.72;;;6.10;70.04
25232;BME280;13176;51.140;6.290;2022-11-20T02:56:51;100368.88;;;6.70;69.92
25232;BME280;13176;51.140;6.290;2022-11-20T02:59:18;100372.34;;;6.69;69.71
25232;BME280;13176;51.140;6.290;2022-11-20T03:01:47;100403.41;;;6.78;70.49
25232;BME280;13176;51.140;6.290;2022-11-20T03:04:13;100473.31;;;7.11;69.52
25232;BME280;13176;51.140;6.290;2022-11-20T03:06:42;100386.31;;;6.14;71.04
25232;BME280;13176;51.140;6.290;2022-11-20T03:09:08;100509.69;;;6.90;71.51
25232;BME280;13176;51.140;6.290;2022-11-20T03:11:35;100506.22;;;6.86;71.61
25232;BME280;13176;51.140;6.290;2022-11-20T03:14:03;100450.16;;;6.51;72.13
25232;BME280;13176;51.140;6.290;2022-11-20T03:16:30;100511.41;;;6.91;72.09
25232;BME280;13176;51.140;6.290;2022-11-20T03:18:57;100470.84;;;6.66;71.83
25232;BME280;13176;51.140;6.290;2022-11-20T03:21:24;100518.31;;;6.96;72.21
25232;BME280;13176;51.140;6.290;2022-11-20T03:23:51;100382.88;;;6.09;72.23
25232;BME280;13176;51.140;6.290;2022-11-20T03:26:21;100342.31;;;5.89;72.39
25232;BME280;13176;51.140;6.290;2022-11-20T03:28:59;100481.19;;;6.69;71.13
25232;BME280;13176;51.140;6.290;2022-11-20T03:31:30;100469.09;;;6.68;71.83
25232;BME280;13176;51.140;6.290;2022-11-20T03:33:57;100400.06;;;6.34;72.06
25232;BME280;13176;51.140;6.290;2022-11-20T03:36:25;100511.34;;;7.09;71.15
25232;BME280;13176;51.140;6.290;2022-11-20T03:38:56;100518.28;;;7.07;71.13
25232;BME280;13176;51.140;6.290;2022-11-20T03:41:28;100523.47;;;7.01;70.76
25232;BME280;13176;51.140;6.290;2022-11-20T03:44:00;100389.72;;;6.22;71.42
25232;BME280;13176;51.140;6.290;2022-11-20T03:46:27;100515.72;;;6.99;70.23
25232;BME280;13176;51.140;6.290;2022-11-20T03:48:54;100512.25;;;6.93;71.02
25232;BME280;13176;51.140;6.290;2022-11-20T03:51:24;100513.97;;;6.98;70.35
25232;BME280;13176;51.140;6.290;2022-11-20T03:53:54;100486.38;;;6.69;71.10
25232;BME280;13176;51.140;6.290;2022-11-20T03:56:28;100334.53;;;5.72;71.14
25232;BME280;13176;51.140;6.290;2022-11-20T03:58:55;100501.94;;;6.81;71.42
25232;BME280;13176;51.140;6.290;2022-11-20T04:01:34;100408.72;;;6.27;70.85
25232;BME280;13176;51.140;6.290;2022-11-20T04:04:03;100369.06;;;5.98;70.23
25232;BME280;13176;51.140;6.290;2022-11-20T04:06:34;100356.97;;;6.03;69.99
25232;BME280;13176;51.140;6.290;2022-11-20T04:09:01;100495.88;;;6.76;70.04
25232;BME280;13176;51.140;6.290;2022-11-20T04:11:29;100362.16;;;6.00;70.02
25232;BME280;13176;51.140;6.290;2022-11-20T04:14:01;100482.94;;;6.64;69.85
25232;BME280;13176;51.140;6.290;2022-11-20T04:16:33;100435.50;;;6.28;70.70
25232;BME280;13176;51.140;6.290;2022-11-20T04:19:01;100367.38;;;5.82;70.21
25232;BME280;13176;51.140;6.290;2022-11-20T04:21:28;100466.56;;;6.40;70.66
25232;BME280;13176;51.140;6.290;2022-11-20T04:23:55;100490.72;;;6.57;70.17
25232;BME280;13176;51.140;6.290;2022-11-20T04:26:23;100476.06;;;6.42;70.44
25232;BME280;13176;51.140;6.290;2022-11-20T04:28:50;100401.00;;;5.90;70.27
25232;BME280;13176;51.140;6.290;2022-11-20T04:31:19;100487.31;;;6.37;71.20
25232;BME280;13176;51.140;6.290;2022-11-20T04:33:46;100458.78;;;6.35;71.08
25232;BME280;13176;51.140;6.290;2022-11-20T04:36:18;100488.16;;;6.55;70.93
25232;BME280;13176;51.140;6.290;2022-11-20T04:38:45;100483.81;;;6.44;70.31
25232;BME280;13176;51.140;6.290;2022-11-20T04:41:17;100453.63;;;6.32;70.55
25232;BME280;13176;51.140;6.290;2022-11-20T04:43:48;100450.16;;;6.39;70.55
25232;BME280;13176;51.140;6.290;2022-11-20T04:46:15;100431.16;;;6.28;70.61
25232;BME280;13176;51.140;6.290;2022-11-20T04:48:42;100444.09;;;6.46;70.42
25232;BME280;13176;51.140;6.290;2022-11-20T04:51:09;100479.44;;;6.83;70.44
25232;BME280;13176;51.140;6.290;2022-11-20T04:53:35;100374.19;;;6.28;69.57
25232;BME280;13176;51.140;6.290;2022-11-20T04:56:04;100439.72;;;6.69;69.76
25232;BME280;13176;51.140;6.290;2022-11-20T04:58:31;100438.06;;;6.53;69.11
25232;BME280;13176;51.140;6.290;2022-11-20T05:01:16;100431.16;;;6.46;69.98
25232;BME280;13176;51.140;6.290;2022-11-20T05:03:43;100488.97;;;6.69;70.00
25232;BME280;13176;51.140;6.290;2022-11-20T05:06:15;100269.88;;;5.47;69.70
25232;BME280;13176;51.140;6.290;2022-11-20T05:08:42;100393.22;;;6.18;69.64
25232;BME280;13176;51.140;6.290;2022-11-20T05:11:11;100479.47;;;6.80;70.00
25232;BME280;13176;51.140;6.290;2022-11-20T05:13:39;100369.00;;;6.19;69.44
25232;BME280;13176;51.140;6.290;2022-11-20T05:16:09;100431.16;;;6.43;69.28
25232;BME280;13176;51.140;6.290;2022-11-20T05:18:36;100432.91;;;6.32;70.12
25232;BME280;13176;51.140;6.290;2022-11-20T05:21:03;100457.00;;;6.70;70.24
25232;BME280;13176;51.140;6.290;2022-11-20T05:23:31;100488.91;;;6.93;70.41
25232;BME280;13176;51.140;6.290;2022-11-20T05:25:58;100477.66;;;7.00;69.99
25232;BME280;13176;51.140;6.290;2022-11-20T05:28:26;100313.81;;;6.08;70.14
25232;BME280;13176;51.140;6.290;2022-11-20T05:30:53;100343.13;;;6.19;69.55
25232;BME280;13176;51.140;6.290;2022-11-20T05:33:19;100395.72;;;6.56;69.74
25232;BME280;13176;51.140;6.290;2022-11-20T05:35:46;100441.41;;;6.91;69.68
25232;BME280;13176;51.140;6.290;2022-11-20T05:38:12;100356.00;;;6.48;69.78
25232;BME280;13176;51.140;6.290;2022-11-20T05:40:39;100451.72;;;7.03;69.51
25232;BME280;13176;51.140;6.290;2022-11-20T05:43:05;100451.69;;;7.09;69.75
25232;BME280;13176;51.140;6.290;2022-11-20T05:45:32;100456.84;;;7.24;69.74
25232;BME280;13176;51.140;6.290;2022-11-20T05:47:59;100463.75;;;7.25;69.20
25232;BME280;13176;51.140;6.290;2022-11-20T05:50:29;100260.28;;;6.13;69.31
25232;BME280;13176;51.140;6.290;2022-11-20T05:52:58;100340.44;;;6.55;69.06
25232;BME280;13176;51.140;6.290;2022-11-20T05:55:26;100256.03;;;5.94;69.09
25232;BME280;13176;51.140;6.290;2022-11-20T05:57:53;100453.44;;;7.07;69.11
25232;BME280;13176;51.140;6.290;2022-11-20T06:00:21;100440.47;;;7.04;69.40
25232;BME280;13176;51.140;6.290;2022-11-20T06:02:49;100449.97;;;7.08;69.33
25232;BME280;13176;51.140;6.290;2022-11-20T06:05:15;100439.63;;;6.99;69.06
25232;BME280;13176;51.140;6.290;2022-11-20T06:07:42;100341.34;;;6.48;69.39
25232;BME280;13176;51.140;6.290;2022-11-20T06:10:08;100329.25;;;6.44;69.49
25232;BME280;13176;51.140;6.290;2022-11-20T06:12:35;100337.91;;;6.37;68.99
25232;BME280;13176;51.140;6.290;2022-11-20T06:15:02;100479.34;;;7.10;68.48
25232;BME280;13176;51.140;6.290;2022-11-20T06:17:28;100465.56;;;6.93;69.68
25232;BME280;13176;51.140;6.290;2022-11-20T06:19:55;100260.38;;;5.71;69.45
25232;BME280;13176;51.140;6.290;2022-11-20T06:22:21;100375.91;;;6.35;69.27
25232;BME280;13176;51.140;6.290;2022-11-20T06:24:48;100356.94;;;6.23;70.34
25232;BME280;13176;51.140;6.290;2022-11-20T06:27:16;100344.88;;;6.14;70.43
25232;BME280;13176;51.140;6.290;2022-11-20T06:29:43;100354.34;;;6.21;70.26
25232;BME280;13176;51.140;6.290;2022-11-20T06:32:10;100425.13;;;6.41;70.14
25232;BME280;13176;51.140;6.290;2022-11-20T06:34:36;100466.53;;;6.73;71.02
25232;BME280;13176;51.140;6.290;2022-11-20T06:37:02;100407.00;;;6.35;70.76
25232;BME280;13176;51.140;6.290;2022-11-20T06:39:29;100375.09;;;6.18;70.41
25232;BME280;13176;51.140;6.290;2022-11-20T06:41:55;100479.44;;;6.83;70.50
25232;BME280;13176;51.140;6.290;2022-11-20T06:44:25;100382.81;;;6.33;70.40
25232;BME280;13176;51.140;6.290;2022-11-20T06:46:51;100401.81;;;6.41;71.14
25232;BME280;13176;51.140;6.290;2022-11-20T06:49:17;100475.91;;;7.02;70.50
25232;BME280;13176;51.140;6.290;2022-11-20T06:51:44;100489.72;;;7.13;70.14
25232;BME280;13176;51.140;6.290;2022-11-20T06:54:10;100468.16;;;6.93;70.46
25232;BME280;13176;51.140;6.290;2022-11-20T06:56:37;100506.19;;;7.07;71.11
25232;BME280;13176;51.140;6.290;2022-11-20T06:59:05;100477.66;;;6.94;71.11
25232;BME280;13176;51.140;6.290;2022-11-20T07:01:32;100396.63;;;6.44;70.88
25232;BME280;13176;51.140;6.290;2022-11-20T07:03:58;100489.75;;;7.04;71.59
25232;BME280;13176;51.140;6.290;2022-11-20T07:06:25;100393.09;;;6.66;71.32
25232;BME280;13176;51.140;6.290;2022-11-20T07:08:51;100284.50;;;5.91;71.20
25232;BME280;13176;51.140;6.290;2022-11-20T07:11:18;100306.94;;;5.98;71.35
25232;BME280;13176;51.140;6.290;2022-11-20T07:13:45;100508.75;;;7.12;72.09
25232;BME280;13176;51.140;6.290;2022-11-20T07:16:11;100451.78;;;6.91;71.92
25232;BME280;13176;51.140;6.290;2022-11-20T07:18:38;100417.28;;;6.68;72.04
25232;BME280;13176;51.140;6.290;2022-11-20T07:21:07;100458.66;;;6.98;72.33
25232;BME280;13176;51.140;6.290;2022-11-20T07:23:34;100337.03;;;6.40;72.02
25232;BME280;13176;51.140;6.290;2022-11-20T07:26:08;100487.91;;;7.33;71.94
25232;BME280;13176;51.140;6.290;2022-11-20T07:28:36;100517.25;;;7.53;71.54
25232;BME280;13176;51.140;6.290;2022-11-20T07:31:04;100505.13;;;7.55;72.00
25232;BME280;13176;51.140;6.290;2022-11-20T07:33:32;100493.03;;;7.51;71.26
25232;BME280;13176;51.140;6.290;2022-11-20T07:35:59;100331.78;;;6.59;71.48
25232;BME280;13176;51.140;6.290;2022-11-20T07:38:26;100312.78;;;6.56;71.83
25232;BME280;13176;51.140;6.290;2022-11-20T07:40:56;100442.13;;;7.26;71.83
25232;BME280;13176;51.140;6.290;2022-11-20T07:43:24;100494.66;;;7.67;72.29
25232;BME280;13176;51.140;6.290;2022-11-20T07:45:51;100480.88;;;7.56;72.19
25232;BME280;13176;51.140;6.290;2022-11-20T07:48:17;100353.28;;;6.82;72.14
25232;BME280;13176;51.140;6.290;2022-11-20T07:50:44;100430.88;;;7.24;72.65
25232;BME280;13176;51.140;6.290;2022-11-20T07:53:12;100357.63;;;6.75;72.54
25232;BME280;13176;51.140;6.290;2022-11-20T07:55:40;100488.59;;;7.69;72.53
25232;BME280;13176;51.140;6.290;2022-11-20T07:58:06;100480.03;;;7.52;73.41
25232;BME280;13176;51.140;6.290;2022-11-20T08:00:33;100392.09;;;7.01;73.35
25232;BME280;13176;51.140;6.290;2022-11-20T08:03:03;100494.69;;;7.64;73.50
25232;BME280;13176;51.140;6.290;2022-11-20T08:05:29;100417.09;;;7.13;73.09
25232;BME280;13176;51.140;6.290;2022-11-20T08:07:56;100367.13;;;6.78;73.60
25232;BME280;13176;51.140;6.290;2022-11-20T08:10:22;100470.56;;;7.45;73.82
25232;BME280;13176;51.140;6.290;2022-11-20T08:12:51;100492.91;;;7.66;73.87
25232;BME280;13176;51.140;6.290;2022-11-20T08:15:37;100460.16;;;7.47;73.53
25232;BME280;13176;51.140;6.290;2022-11-20T08:18:06;100451.50;;;7.48;73.30
25232;BME280;13176;51.140;6.290;2022-11-20T08:20:52;100456.66;;;7.60;73.07
25232;BME280;13176;51.140;6.290;2022-11-20T08:23:19;100465.22;;;7.71;72.79
25232;BME280;13176;51.140;6.290;2022-11-20T08:25:48;100370.38;;;7.22;72.92
25232;BME280;13176;51.140;6.290;2022-11-20T08:28:15;100456.47;;;7.84;72.61
25232;BME280;13176;51.140;6.290;2022-11-20T08:30:48;100392.72;;;7.45;72.97
25232;BME280;13176;51.140;6.290;2022-11-20T08:33:14;100469.41;;;7.92;72.39
25232;BME280;13176;51.140;6.290;2022-11-20T08:35:40;100461.53;;;8.01;72.51
25232;BME280;13176;51.140;6.290;2022-11-20T08:38:08;100487.44;;;8.16;72.58
25232;BME280;13176;51.140;6.290;2022-11-20T08:40:35;100444.38;;;7.80;71.99
25232;BME280;13176;51.140;6.290;2022-11-20T08:43:01;100441.81;;;7.75;72.81
25232;BME280;13176;51.140;6.290;2022-11-20T08:45:27;100468.50;;;7.96;72.43
25232;BME280;13176;51.140;6.290;2022-11-20T08:48:00;100484.84;;;8.10;72.74
25232;BME280;13176;51.140;6.290;2022-11-20T08:50:27;100477.03;;;8.10;73.55
25232;BME280;13176;51.140;6.290;2022-11-20T08:52:54;100427.97;;;7.76;73.11
25232;BME280;13176;51.140;6.290;2022-11-20T08:55:20;100396.06;;;7.64;73.21
25232;BME280;13176;51.140;6.290;2022-11-20T08:57:47;100392.63;;;7.56;73.40
25232;BME280;13176;51.140;6.290;2022-11-20T09:00:16;100430.50;;;7.87;73.07
25232;BME280;13176;51.140;6.290;2022-11-20T09:02:43;100444.25;;;7.99;72.97
25232;BME280;13176;51.140;6.290;2022-11-20T09:05:09;100437.34;;;7.96;73.20
25232;BME280;13176;51.140;6.290;2022-11-20T09:07:35;100449.34;;;8.09;73.12
25232;BME280;13176;51.140;6.290;2022-11-20T09:10:02;100323.44;;;7.55;73.01
25232;BME280;13176;51.140;6.290;2022-11-20T09:12:49;100458.72;;;8.31;73.27
25232;BME280;13176;51.140;6.290;2022-11-20T09:15:17;100468.16;;;8.41;72.54
25232;BME280;13176;51.140;6.290;2022-11-20T09:17:56;100465.56;;;8.43;72.60
25232;BME280;13176;51.140;6.290;2022-11-20T09:20:25;100343.97;;;7.79;72.16
25232;BME280;13176;51.140;6.290;2022-11-20T09:22:52;100448.31;;;8.34;72.15
25232;BME280;13176;51.140;6.290;2022-11-20T09:25:18;100357.72;;;7.92;72.04
25232;BME280;13176;51.140;6.290;2022-11-20T09:27:44;100455.13;;;8.46;71.81
25232;BME280;13176;51.140;6.290;2022-11-20T09:30:13;100333.75;;;7.64;71.67
25232;BME280;13176;51.140;6.290;2022-11-20T09:32:40;100466.28;;;8.58;72.43
25232;BME280;13176;51.140;6.290;2022-11-20T09:35:08;100343.97;;;7.82;71.65
25232;BME280;13176;51.140;6.290;2022-11-20T09:37:35;100450.88;;;8.37;71.79
25232;BME280;13176;51.140;6.290;2022-11-20T09:40:02;100479.38;;;8.48;72.41
25232;BME280;13176;51.140;6.290;2022-11-20T09:42:32;100457.63;;;8.56;72.41
25232;BME280;13176;51.140;6.290;2022-11-20T09:48:13;100452.53;;;8.44;72.77
25232;BME280;13176;51.140;6.290;2022-11-20T09:56:23;100392.00;;;8.33;71.49
25232;BME280;13176;51.140;6.290;2022-11-20T09:58:54;100229.19;;;7.47;71.31
25232;BME280;13176;51.140;6.290;2022-11-20T10:01:27;100450.47;;;8.76;71.24
25232;BME280;13176;51.140;6.290;2022-11-20T10:04:19;100434.78;;;8.82;71.35
25232;BME280;13176;51.140;6.290;2022-11-20T10:07:00;100236.66;;;7.80;71.33
25232;BME280;13176;51.140;6.290;2022-11-20T10:09:54;100412.06;;;8.99;71.02
25232;BME280;13176;51.140;6.290;2022-11-20T10:15:19;100201.28;;;7.71;70.56
25232;BME280;13176;51.140;6.290;2022-11-20T10:18:14;100429.03;;;9.27;70.10
25232;BME280;13176;51.140;6.290;2022-11-20T10:21:06;100411.78;;;9.20;69.77
25232;BME280;13176;51.140;6.290;2022-11-20T10:23:50;100413.13;;;9.48;69.95
25232;BME280;13176;51.140;6.290;2022-11-20T10:26:46;100403.53;;;9.51;69.16
25232;BME280;13176;51.140;6.290;2022-11-20T10:29:16;100363.91;;;9.31;69.32
25232;BME280;13176;51.140;6.290;2022-11-20T10:31:46;100256.25;;;8.78;69.36
25232;BME280;13176;51.140;6.290;2022-11-20T10:34:22;100376.88;;;9.36;69.02
25232;BME280;13176;51.140;6.290;2022-11-20T10:36:58;100225.31;;;8.60;69.10
25232;BME280;13176;51.140;6.290;2022-11-20T10:42:37;100364.59;;;9.44;69.06
25232;BME280;13176;51.140;6.290;2022-11-20T10:48:20;100310.44;;;9.09;68.95
25232;BME280;13176;51.140;6.290;2022-11-20T10:53:59;100355.78;;;9.51;69.35
25232;BME280;13176;51.140;6.290;2022-11-20T10:56:35;100343.63;;;9.53;69.52
25232;BME280;13176;51.140;6.290;2022-11-20T11:01:52;100196.75;;;8.57;68.36
25232;BME280;13176;51.140;6.290;2022-11-20T11:04:36;100303.47;;;9.11;68.88
25232;BME280;13176;51.140;6.290;2022-11-20T11:07:15;100321.47;;;9.25;69.39
25232;BME280;13176;51.140;6.290;2022-11-20T11:09:50;100318.72;;;9.37;68.70
25232;BME280;13176;51.140;6.290;2022-11-20T11:12:21;100324.53;;;9.51;69.09
25232;BME280;13176;51.140;6.290;2022-11-20T11:14:51;100238.72;;;8.92;69.54
25232;BME280;13176;51.140;6.290;2022-11-20T11:17:30;100238.63;;;8.98;69.74
25232;BME280;13176;51.140;6.290;2022-11-20T11:25:24;100299.84;;;9.76;68.52
25232;BME280;13176;51.140;6.290;2022-11-20T11:27:52;100189.03;;;9.08;68.92
25232;BME280;13176;51.140;6.290;2022-11-20T11:30:19;100073.03;;;8.44;68.80
25232;BME280;13176;51.140;6.290;2022-11-20T11:32:46;100145.31;;;8.77;68.57
25232;BME280;13176;51.140;6.290;2022-11-20T11:35:24;100155.44;;;8.95;67.97
25232;BME280;13176;51.140;6.290;2022-11-20T11:37:52;100285.88;;;9.80;68.38
25232;BME280;13176;51.140;6.290;2022-11-20T11:40:21;100180.97;;;9.22;68.24
25232;BME280;13176;51.140;6.290;2022-11-20T11:42:56;100272.75;;;9.84;68.12
25232;BME280;13176;51.140;6.290;2022-11-20T11:45:24;100254.88;;;9.65;68.74
25232;BME280;13176;51.140;6.290;2022-11-20T11:47:52;100250.41;;;9.71;68.68
25232;BME280;13176;51.140;6.290;2022-11-20T11:50:25;100262.31;;;9.86;68.85
25232;BME280;13176;51.140;6.290;2022-11-20T11:53:14;100251.03;;;9.84;69.27
25232;BME280;13176;51.140;6.290;2022-11-20T11:55:45;100213.41;;;9.53;69.01
25232;BME280;13176;51.140;6.290;2022-11-20T12:01:27;100247.69;;;9.79;69.66
25232;BME280;13176;51.140;6.290;2022-11-20T12:04:37;100245.84;;;9.84;69.69
25232;BME280;13176;51.140;6.290;2022-11-20T12:07:22;100242.38;;;9.83;69.72
25232;BME280;13176;51.140;6.290;2022-11-20T12:10:20;100206.16;;;9.70;69.06
25232;BME280;13176;51.140;6.290;2022-11-20T12:12:51;100170.22;;;9.43;69.44
25232;BME280;13176;51.140;6.290;2022-11-20T12:15:27;100115.19;;;9.14;70.14
25232;BME280;13176;51.140;6.290;2022-11-20T12:17:55;100206.97;;;9.73;70.41
25232;BME280;13176;51.140;6.290;2022-11-20T12:20:35;100171.81;;;9.50;70.60
25232;BME280;13176;51.140;6.290;2022-11-20T12:29:09;100048.88;;;8.91;72.46
25232;BME280;13176;51.140;6.290;2022-11-20T12:39:46;100193.81;;;9.81;72.63
25232;BME280;13176;51.140;6.290;2022-11-20T13:07:12;100059.50;;;9.66;73.32
25232;BME280;13176;51.140;6.290;2022-11-20T13:09:46;100092.69;;;10.01;73.46
25232;BME280;13176;51.140;6.290;2022-11-20T13:12:36;100127.59;;;10.31;73.75
25232;BME280;13176;51.140;6.290;2022-11-20T13:18:12;100118.94;;;10.31;73.23
25232;BME280;13176;51.140;6.290;2022-11-20T13:20:45;100001.47;;;9.60;73.55
25232;BME280;13176;51.140;6.290;2022-11-20T13:23:25;99999.66;;;9.65;72.82
25232;BME280;13176;51.140;6.290;2022-11-20T13:26:03;100107.72;;;10.27;72.94
25232;BME280;13176;51.140;6.290;2022-11-20T13:28:30;100083.84;;;10.08;73.34
25232;BME280;13176;51.140;6.290;2022-11-20T13:30:59;100087.78;;;10.25;73.05
25232;BME280;13176;51.140;6.290;2022-11-20T13:33:35;99879.38;;;9.10;73.27
25232;BME280;13176;51.140;6.290;2022-11-20T13:36:05;99964.13;;;9.62;72.57
25232;BME280;13176;51.140;6.290;2022-11-20T13:38:44;99805.47;;;8.79;72.47
25232;BME280;13176;51.140;6.290;2022-11-20T13:41:23;99942.47;;;9.59;73.17
25232;BME280;13176;51.140;6.290;2022-11-20T13:46:50;99942.59;;;9.53;72.83
25232;BME280;13176;51.140;6.290;2022-11-20T13:49:25;99922.53;;;9.58;72.98
25232;BME280;13176;51.140;6.290;2022-11-20T13:57:59;100053.50;;;10.41;73.26
25232;BME280;13176;51.140;6.290;2022-11-20T14:00:31;99943.06;;;9.71;72.72
25232;BME280;13176;51.140;6.290;2022-11-20T14:03:02;99928.44;;;9.66;72.69
25232;BME280;13176;51.140;6.290;2022-11-20T14:05:39;99978.19;;;9.92;72.81
25232;BME280;13176;51.140;6.290;2022-11-20T14:08:15;99792.91;;;8.98;72.27
25232;BME280;13176;51.140;6.290;2022-11-20T14:10:47;99909.59;;;9.55;72.96
25232;BME280;13176;51.140;6.290;2022-11-20T14:13:20;100021.47;;;10.36;72.87
25232;BME280;13176;51.140;6.290;2022-11-20T14:15:47;99973.81;;;9.94;73.34
25232;BME280;13176;51.140;6.290;2022-11-20T14:18:19;99970.75;;;10.15;73.22
25232;BME280;13176;51.140;6.290;2022-11-20T14:20:54;99871.66;;;9.45;72.83
25232;BME280;13176;51.140;6.290;2022-11-20T14:23:25;99855.16;;;9.46;73.03
25232;BME280;13176;51.140;6.290;2022-11-20T14:25:55;99953.53;;;10.08;72.66
25232;BME280;13176;51.140;6.290;2022-11-20T14:28:30;99956.97;;;10.10;72.89
25232;BME280;13176;51.140;6.290;2022-11-20T14:31:00;99868.88;;;9.51;72.66
25232;BME280;13176;51.140;6.290;2022-11-20T14:33:27;99868.59;;;9.63;72.43
25232;BME280;13176;51.140;6.290;2022-11-20T14:35:55;99887.31;;;9.80;72.64
25232;BME280;13176;51.140;6.290;2022-11-20T14:38:29;99972.22;;;10.24;72.76
25232;BME280;13176;51.140;6.290;2022-11-20T14:41:17;99980.72;;;10.32;72.52
25232;BME280;13176;51.140;6.290;2022-11-20T14:43:49;99881.75;;;9.57;73.15
25232;BME280;13176;51.140;6.290;2022-11-20T14:46:20;99900.41;;;9.77;73.24